Time;durP1;ratioP1;P1;durP2;ratioP2;P2;SDS_P1;SDS_P2;PMS_P1;PMS_P2;Temp;Humidity;BMP_temperature;BMP_pressure;BME280_temperature;BME280_humidity;BME280_pressure;Samples;Min_cycle;Max_cycle;Signal;HPM_P1;HPM_P2
2023/07/24 00:00:59;;;;;;;3.70;2.55;;;;;;;18.18;100.00;100303.16;4981158;28;21032;-70
2023/07/24 00:03:24;;;;;;;6.43;3.05;;;;;;;18.15;100.00;100298.31;4981782;28;20031;-70
2023/07/24 00:05:50;;;;;;;4.15;2.65;;;;;;;18.12;100.00;100288.28;4983415;28;20025;-70
2023/07/24 00:08:15;;;;;;;5.40;3.17;;;;;;;18.09;100.00;100289.50;4981101;28;20038;-70
2023/07/24 00:10:41;;;;;;;5.13;3.25;;;;;;;18.11;100.00;100285.88;4982083;28;20074;-70
2023/07/24 00:13:06;;;;;;;4.85;2.72;;;;;;;18.02;100.00;100280.91;4979816;28;20030;-70
2023/07/24 00:15:32;;;;;;;5.10;2.90;;;;;;;17.99;100.00;100276.09;4963801;28;20928;-70
2023/07/24 00:17:57;;;;;;;4.00;2.53;;;;;;;18.00;100.00;100279.53;4977682;28;20057;-70
2023/07/24 00:20:24;;;;;;;5.30;2.92;;;;;;;17.99;100.00;100273.50;4978984;28;20034;-70
2023/07/24 00:22:49;;;;;;;4.47;2.90;;;;;;;17.97;100.00;100275.53;4976454;28;20038;-70
2023/07/24 00:25:15;;;;;;;3.58;2.55;;;;;;;17.95;100.00;100268.88;4972373;28;20656;-70
2023/07/24 00:27:40;;;;;;;3.47;2.35;;;;;;;17.89;100.00;100258.25;4970600;28;20258;-70
2023/07/24 00:30:07;;;;;;;4.03;2.70;;;;;;;17.86;100.00;100266.53;4985373;28;20038;-71
2023/07/24 00:32:32;;;;;;;6.00;2.75;;;;;;;17.83;100.00;100271.38;4969655;28;20092;-70
2023/07/24 00:34:57;;;;;;;4.05;2.63;;;;;;;17.79;100.00;100260.53;4959914;28;20038;-69
2023/07/24 00:37:24;;;;;;;7.28;2.83;;;;;;;17.78;100.00;100266.81;4988904;28;22215;-69
2023/07/24 00:39:49;;;;;;;3.47;2.58;;;;;;;17.78;100.00;100261.56;5001082;28;20407;-70
2023/07/24 00:42:15;;;;;;;6.63;2.80;;;;;;;17.76;100.00;100263.56;4975722;28;20050;-70
2023/07/24 00:44:40;;;;;;;6.85;2.95;;;;;;;17.74;100.00;100259.56;4976617;28;20034;-70
2023/07/24 00:47:06;;;;;;;6.35;2.70;;;;;;;17.69;100.00;100268.88;4980171;28;20393;-70
2023/07/24 00:49:31;;;;;;;6.88;2.70;;;;;;;17.65;100.00;100254.63;4979034;28;20030;-70
2023/07/24 00:51:57;;;;;;;3.47;2.35;;;;;;;17.61;100.00;100250.00;4979207;28;22175;-70
2023/07/24 00:54:30;;;;;;;5.03;3.05;;;;;;;17.60;100.00;100245.78;4997011;28;20126;-70
2023/07/24 00:56:55;;;;;;;4.80;3.17;;;;;;;17.58;100.00;100246.00;4976508;28;20093;-70
2023/07/24 00:59:21;;;;;;;5.63;3.08;;;;;;;17.60;100.00;100237.94;4982367;28;20034;-69
2023/07/24 01:01:47;;;;;;;5.70;3.08;;;;;;;17.60;100.00;100223.00;4959683;28;20093;-70
2023/07/24 01:04:14;;;;;;;7.30;3.20;;;;;;;17.57;100.00;100220.78;4980210;28;20034;-69
2023/07/24 01:06:40;;;;;;;6.03;2.83;;;;;;;17.52;100.00;100216.22;4978929;28;20085;-70
2023/07/24 01:09:05;;;;;;;6.07;2.75;;;;;;;17.51;100.00;100219.84;4986746;28;20488;-69
2023/07/24 01:11:43;;;;;;;5.18;3.30;;;;;;;17.53;100.00;100222.25;4980983;28;20042;-70
2023/07/24 01:14:22;;;;;;;5.10;2.85;;;;;;;17.53;100.00;100217.00;4961587;28;20038;-69
2023/07/24 01:16:49;;;;;;;3.60;2.60;;;;;;;17.53;100.00;100211.78;4980731;28;20682;-70
2023/07/24 01:19:40;;;;;;;7.10;3.15;;;;;;;17.54;100.00;100210.75;4993258;28;20038;-69
2023/07/24 01:22:38;;;;;;;6.07;3.17;;;;;;;17.52;100.00;100210.19;4981250;28;20552;-69
2023/07/24 01:25:22;;;;;;;6.40;2.80;;;;;;;17.50;100.00;100214.84;4979276;28;20487;-70
2023/07/24 01:27:47;;;;;;;6.90;3.05;;;;;;;17.51;100.00;100216.44;4977981;28;20037;-70
2023/07/24 01:30:18;;;;;;;5.78;3.03;;;;;;;17.46;100.00;100201.34;4977555;28;20049;-70
2023/07/24 01:32:44;;;;;;;8.07;3.58;;;;;;;17.44;100.00;100197.34;4994160;28;20404;-70
2023/07/24 01:35:10;;;;;;;8.45;3.42;;;;;;;17.43;100.00;100195.75;5000340;28;20043;-70
2023/07/24 01:37:39;;;;;;;5.32;2.75;;;;;;;17.43;100.00;100198.38;4995103;28;20038;-70
2023/07/24 01:40:09;;;;;;;4.97;2.90;;;;;;;17.44;100.00;100192.09;4961532;28;20129;-70
2023/07/24 01:42:35;;;;;;;5.97;3.00;;;;;;;17.42;100.00;100192.34;4962776;28;20035;-70
2023/07/24 01:45:03;;;;;;;6.05;3.40;;;;;;;17.41;100.00;100197.78;4994450;28;20027;-70
2023/07/24 01:47:29;;;;;;;4.85;2.88;;;;;;;17.38;100.00;100204.25;4998897;28;20045;-70
2023/07/24 01:49:55;;;;;;;6.03;3.08;;;;;;;17.36;100.00;100189.75;4996600;28;20427;-70
2023/07/24 01:52:21;;;;;;;4.72;2.78;;;;;;;17.34;100.00;100191.78;4962601;28;20408;-69
2023/07/24 01:54:47;;;;;;;3.97;2.70;;;;;;;17.29;100.00;100180.16;4983162;28;20034;-70
2023/07/24 01:57:12;;;;;;;5.45;3.10;;;;;;;17.24;100.00;100161.63;4980636;28;20117;-70
2023/07/24 01:59:38;;;;;;;7.28;3.00;;;;;;;17.23;100.00;100167.88;4978054;28;20034;-70
2023/07/24 02:02:03;;;;;;;6.13;2.97;;;;;;;17.24;100.00;100172.13;4992746;28;21086;-70
2023/07/24 02:04:29;;;;;;;7.05;3.40;;;;;;;17.25;100.00;100173.75;4965074;28;20070;-70
2023/07/24 02:06:55;;;;;;;6.03;3.42;;;;;;;17.26;100.00;100175.31;4978920;28;20047;-70
2023/07/24 02:09:20;;;;;;;6.47;3.72;;;;;;;17.26;100.00;100177.16;4979283;28;20037;-70
2023/07/24 02:11:46;;;;;;;5.10;3.00;;;;;;;17.27;100.00;100155.16;4980512;28;20088;-70
2023/07/24 02:14:13;;;;;;;5.80;2.92;;;;;;;17.26;100.00;100156.19;4977105;28;20508;-70
2023/07/24 02:16:38;;;;;;;6.20;3.78;;;;;;;17.27;100.00;100147.31;4993569;28;20039;-70
2023/07/24 02:19:05;;;;;;;6.75;2.92;;;;;;;17.27;100.00;100155.97;4976446;28;20037;-70
2023/07/24 02:21:30;;;;;;;11.35;3.75;;;;;;;17.28;100.00;100146.28;4974307;28;20133;-70
2023/07/24 02:23:56;;;;;;;8.98;4.32;;;;;;;17.29;100.00;100145.25;4978837;28;20084;-70
2023/07/24 02:26:21;;;;;;;6.20;2.90;;;;;;;17.36;100.00;100153.88;4982256;28;20401;-69
2023/07/24 02:28:47;;;;;;;10.50;3.30;;;;;;;17.29;100.00;100150.50;4997921;28;20038;-70
2023/07/24 02:31:13;;;;;;;5.57;3.20;;;;;;;17.34;100.00;100150.66;4979629;28;20041;-70
2023/07/24 02:33:38;;;;;;;10.80;3.65;;;;;;;17.29;100.00;100140.84;4977834;28;20031;-70
2023/07/24 02:36:05;;;;;;;7.20;3.33;;;;;;;17.27;100.00;100137.66;4998467;28;20048;-70
2023/07/24 02:38:33;;;;;;;5.50;3.50;;;;;;;17.26;100.00;100127.38;4997056;28;20123;-70
2023/07/24 02:40:58;;;;;;;6.90;4.05;;;;;;;17.24;100.00;100140.69;4994453;28;20133;-70
2023/07/24 02:43:24;;;;;;;6.70;3.83;;;;;;;17.24;100.00;100140.69;4998821;28;20081;-70
2023/07/24 02:45:49;;;;;;;9.63;3.22;;;;;;;17.24;100.00;100138.06;4985579;28;20021;-70
2023/07/24 02:48:15;;;;;;;10.20;4.05;;;;;;;17.29;100.00;100145.25;4984109;28;20035;-70
2023/07/24 02:50:40;;;;;;;11.93;4.97;;;;;;;17.29;100.00;100153.94;4981529;28;20026;-70
2023/07/24 02:53:06;;;;;;;9.80;3.95;;;;;;;17.36;100.00;100166.97;4986041;28;20022;-69
2023/07/24 02:55:31;;;;;;;8.02;3.55;;;;;;;17.30;100.00;100154.75;4980012;28;20505;-70
2023/07/24 02:57:57;;;;;;;8.88;4.72;;;;;;;17.27;100.00;100147.31;4987055;28;20049;-70
2023/07/24 03:00:23;;;;;;;7.25;3.72;;;;;;;17.25;100.00;100121.34;4996992;28;20030;-70
2023/07/24 03:02:49;;;;;;;9.25;4.35;;;;;;;17.25;100.00;100118.72;4983577;28;20041;-70
2023/07/24 03:05:14;;;;;;;5.65;3.72;;;;;;;17.24;100.00;100124.97;4983634;28;20045;-69
2023/07/24 03:07:40;;;;;;;9.35;4.25;;;;;;;17.22;100.00;100132.25;4982486;28;20046;-69
2023/07/24 03:10:05;;;;;;;12.75;4.55;;;;;;;17.24;100.00;100139.88;4979322;28;20037;-70
2023/07/24 03:12:31;;;;;;;8.20;4.78;;;;;;;17.23;100.00;100127.78;4978638;28;20951;-70
2023/07/24 03:14:56;;;;;;;10.25;4.18;;;;;;;17.23;100.00;100128.59;4980319;28;20075;-69
2023/07/24 03:17:22;;;;;;;10.48;4.72;;;;;;;17.25;100.00;100129.19;4983341;28;20038;-70
2023/07/24 03:19:49;;;;;;;17.40;4.88;;;;;;;17.30;100.00;100126.72;4990581;28;20117;-70
2023/07/24 03:22:14;;;;;;;15.45;5.10;;;;;;;17.27;100.00;100124.53;4965117;28;20062;-70
2023/07/24 03:24:40;;;;;;;7.47;4.47;;;;;;;17.26;100.00;100120.31;5000201;28;20037;-69
2023/07/24 03:27:05;;;;;;;11.60;4.63;;;;;;;17.29;100.00;100122.50;5002215;28;21528;-68
2023/07/24 03:29:31;;;;;;;8.55;5.03;;;;;;;17.30;100.00;100121.47;4988027;28;20057;-69
2023/07/24 03:31:56;;;;;;;7.47;4.25;;;;;;;17.28;100.00;100120.88;4984785;28;20053;-69
2023/07/24 03:34:22;;;;;;;16.60;4.57;;;;;;;17.28;100.00;100122.72;4986410;28;20047;-68
2023/07/24 03:36:47;;;;;;;8.75;4.25;;;;;;;17.26;100.00;100116.91;4986499;28;20486;-69
2023/07/24 03:39:13;;;;;;;6.85;4.30;;;;;;;17.37;100.00;100113.56;4971158;28;20038;-69
2023/07/24 03:41:39;;;;;;;12.77;4.97;;;;;;;17.35;100.00;100120.00;4986777;28;20037;-69
2023/07/24 03:44:04;;;;;;;13.20;5.32;;;;;;;17.40;100.00;100112.31;4967884;28;20539;-68
2023/07/24 03:46:31;;;;;;;8.15;4.88;;;;;;;17.37;100.00;100107.53;4983354;28;20039;-69
2023/07/24 03:48:57;;;;;;;6.63;3.65;;;;;;;17.29;100.00;100104.16;4985642;28;20053;-69
2023/07/24 03:51:22;;;;;;;10.20;4.88;;;;;;;17.29;100.00;100112.03;4986391;28;20594;-70
2023/07/24 03:53:48;;;;;;;20.35;6.20;;;;;;;17.35;100.00;100099.06;4986864;28;20033;-69
2023/07/24 03:56:13;;;;;;;13.43;5.90;;;;;;;17.30;100.00;100102.34;4987314;28;20069;-70
2023/07/24 03:58:39;;;;;;;14.43;5.22;;;;;;;17.28;100.00;100113.03;4991828;28;20133;-70
2023/07/24 04:01:05;;;;;;;11.65;5.13;;;;;;;17.31;100.00;100096.09;4988463;28;20044;-69
2023/07/24 04:03:30;;;;;;;9.98;5.72;;;;;;;17.30;100.00;100099.72;4989135;28;20121;-70
2023/07/24 04:05:56;;;;;;;14.95;4.95;;;;;;;17.28;100.00;100114.84;4973977;28;20030;-70
2023/07/24 04:08:21;;;;;;;10.98;4.93;;;;;;;17.26;100.00;100111.66;4989718;28;20169;-70
2023/07/24 04:10:47;;;;;;;14.48;5.78;;;;;;;17.26;100.00;100106.41;4994085;28;20417;-71
2023/07/24 04:13:12;;;;;;;15.73;5.15;;;;;;;17.24;100.00;100103.22;4989164;28;20568;-70
2023/07/24 04:15:39;;;;;;;14.65;4.95;;;;;;;17.27;100.00;100100.16;4990556;28;20053;-71
2023/07/24 04:18:04;;;;;;;10.43;4.82;;;;;;;17.24;100.00;100092.72;4985634;28;20133;-69
2023/07/24 04:20:30;;;;;;;12.35;4.85;;;;;;;17.32;100.00;100074.91;5000555;28;20049;-70
2023/07/24 04:22:55;;;;;;;14.93;6.03;;;;;;;17.28;100.00;100068.50;4982624;28;20042;-70
2023/07/24 04:25:21;;;;;;;12.73;5.55;;;;;;;17.21;100.00;100066.97;5000911;28;20499;-69
2023/07/24 04:27:46;;;;;;;11.20;5.20;;;;;;;17.21;100.00;100072.19;4984477;28;20038;-70
2023/07/24 04:30:12;;;;;;;9.48;4.80;;;;;;;17.25;100.00;100073.38;4987506;28;20491;-70
2023/07/24 04:32:37;;;;;;;14.38;5.57;;;;;;;17.27;100.00;100071.31;5003336;28;20034;-70
2023/07/24 04:35:03;;;;;;;11.20;5.43;;;;;;;17.25;100.00;100082.03;4983299;28;20089;-70
2023/07/24 04:37:28;;;;;;;10.32;4.97;;;;;;;17.18;100.00;100091.78;4985611;28;20101;-70
2023/07/24 04:39:54;;;;;;;10.63;5.20;;;;;;;17.17;100.00;100098.03;4985768;28;20037;-69
2023/07/24 04:42:19;;;;;;;11.32;5.78;;;;;;;17.21;100.00;100096.56;4987740;28;20452;-70
2023/07/24 04:44:45;;;;;;;12.10;6.03;;;;;;;17.18;100.00;100088.34;4990993;28;20053;-70
2023/07/24 04:47:10;;;;;;;9.45;5.07;;;;;;;17.17;100.00;100102.47;4989765;28;20030;-69
2023/07/24 04:49:36;;;;;;;14.02;5.70;;;;;;;17.19;100.00;100110.91;4987211;28;20092;-70
2023/07/24 04:52:01;;;;;;;9.90;4.88;;;;;;;17.20;100.00;100113.31;4989869;28;20088;-69
2023/07/24 04:54:28;;;;;;;11.00;5.88;;;;;;;17.28;100.00;100120.88;4985412;28;20108;-69
2023/07/24 04:56:53;;;;;;;9.35;4.75;;;;;;;17.25;100.00;100121.34;4986445;28;22638;-69
2023/07/24 04:59:19;;;;;;;11.88;5.03;;;;;;;17.23;100.00;100128.59;4987667;28;20046;-70
2023/07/24 05:01:44;;;;;;;10.70;5.15;;;;;;;17.29;100.00;100129.53;4987199;28;20035;-70
2023/07/24 05:04:10;;;;;;;7.47;5.22;;;;;;;17.30;100.00;100129.34;4985312;28;20034;-70
2023/07/24 05:06:37;;;;;;;11.27;5.32;;;;;;;17.31;100.00;100123.09;4987336;28;20543;-69
2023/07/24 05:09:02;;;;;;;9.45;5.18;;;;;;;17.26;100.00;100114.28;4985232;28;20042;-70
2023/07/24 05:11:28;;;;;;;13.52;5.97;;;;;;;17.27;100.00;100111.44;4984291;28;20073;-70
2023/07/24 05:13:53;;;;;;;11.38;5.68;;;;;;;17.29;100.00;100127.75;4998324;28;20045;-69
2023/07/24 05:16:19;;;;;;;9.75;4.47;;;;;;;17.24;100.00;100132.03;5000935;28;20460;-69
2023/07/24 05:18:44;;;;;;;9.52;4.97;;;;;;;17.24;100.00;100132.81;4986067;28;20065;-69
2023/07/24 05:21:10;;;;;;;11.18;5.45;;;;;;;17.25;100.00;100138.84;4987642;28;20097;-69
2023/07/24 05:23:35;;;;;;;10.50;5.43;;;;;;;17.24;100.00;100143.31;4986948;28;20429;-69
2023/07/24 05:26:02;;;;;;;11.13;5.38;;;;;;;17.22;100.00;100142.72;4983118;28;20078;-70
2023/07/24 05:28:30;;;;;;;11.93;4.93;;;;;;;17.24;100.00;100135.44;4984853;28;20121;-69
2023/07/24 05:30:56;;;;;;;9.23;4.70;;;;;;;17.30;100.00;100139.03;5002864;28;20033;-69
2023/07/24 05:33:21;;;;;;;12.15;5.00;;;;;;;17.48;100.00;100152.16;4983638;28;20041;-69
2023/07/24 05:35:49;;;;;;;12.73;5.35;;;;;;;17.46;100.00;100138.47;4985162;28;20133;-70
2023/07/24 05:38:14;;;;;;;10.32;5.20;;;;;;;17.42;100.00;100139.91;4998827;28;20061;-69
2023/07/24 05:40:40;;;;;;;10.40;5.28;;;;;;;17.43;100.00;100138.09;4996677;28;20401;-70
2023/07/24 05:43:05;;;;;;;8.73;5.68;;;;;;;17.41;100.00;100138.31;4983186;28;20045;-69
2023/07/24 05:45:31;;;;;;;11.35;5.28;;;;;;;17.41;100.00;100133.06;4983106;28;20037;-69
2023/07/24 05:47:56;;;;;;;11.27;5.68;;;;;;;17.40;100.00;100135.91;4981392;28;20589;-69
2023/07/24 05:50:21;;;;;;;11.65;5.28;;;;;;;17.47;100.00;100124.31;4983430;28;20034;-69
2023/07/24 05:52:47;;;;;;;13.60;4.90;;;;;;;17.48;100.00;100125.16;4987310;28;20057;-69
2023/07/24 05:55:12;;;;;;;11.18;5.53;;;;;;;17.55;100.00;100114.59;4986301;28;20513;-69
2023/07/24 05:57:38;;;;;;;10.68;4.93;;;;;;;17.67;100.00;100113.63;4986519;28;20046;-69
2023/07/24 06:00:05;;;;;;;12.73;5.05;;;;;;;18.03;100.00;100105.97;4982413;28;20035;-69
2023/07/24 06:02:36;;;;;;;7.95;4.55;;;;;;;18.24;100.00;100097.59;4985964;28;20496;-69
2023/07/24 06:05:02;;;;;;;13.70;5.50;;;;;;;18.26;100.00;100095.56;4985493;28;20030;-69
2023/07/24 06:07:27;;;;;;;11.70;5.45;;;;;;;18.51;100.00;100096.44;4984868;28;20041;-70
2023/07/24 06:09:53;;;;;;;10.65;5.10;;;;;;;18.92;100.00;100092.19;4991882;28;20046;-69
2023/07/24 06:12:18;;;;;;;8.40;4.47;;;;;;;19.06;100.00;100091.72;4982797;28;20499;-69
2023/07/24 06:14:44;;;;;;;8.48;4.28;;;;;;;18.89;100.00;100090.78;4986143;28;20132;-70
2023/07/24 06:17:09;;;;;;;7.82;4.03;;;;;;;18.83;100.00;100099.59;4996728;28;20085;-69
2023/07/24 06:19:35;;;;;;;6.53;4.03;;;;;;;18.85;100.00;100098.34;4987206;28;20126;-71
2023/07/24 06:22:00;;;;;;;7.32;3.85;;;;;;;18.77;100.00;100105.72;4985881;28;20057;-70
2023/07/24 06:24:26;;;;;;;9.65;4.65;;;;;;;18.70;100.00;100107.66;4982439;28;20481;-69
2023/07/24 06:26:51;;;;;;;6.82;4.10;;;;;;;18.69;100.00;100112.09;4982646;28;20049;-69
2023/07/24 06:29:16;;;;;;;7.88;4.22;;;;;;;18.98;100.00;100107.81;4988047;28;20031;-70
2023/07/24 06:31:42;;;;;;;10.48;3.80;;;;;;;19.04;100.00;100104.28;4984344;28;20039;-70
2023/07/24 06:34:07;;;;;;;7.40;3.63;;;;;;;18.85;100.00;100111.47;4982667;28;20170;-70
2023/07/24 06:36:33;;;;;;;11.05;5.53;;;;;;;18.93;100.00;100115.59;4992894;28;20033;-70
2023/07/24 06:39:01;;;;;;;11.23;4.20;;;;;;;18.81;100.00;100104.25;4984446;28;20125;-69
2023/07/24 06:41:27;;;;;;;9.70;5.03;;;;;;;18.72;100.00;100109.00;4982661;28;20382;-70
2023/07/24 06:43:53;;;;;;;7.40;3.50;;;;;;;18.72;100.00;100116.88;4997305;28;20050;-70
2023/07/24 06:46:18;;;;;;;7.82;4.22;;;;;;;18.73;100.00;100112.47;4982838;28;20088;-69
2023/07/24 06:48:44;;;;;;;7.00;3.78;;;;;;;18.71;100.00;100114.50;4993876;28;20030;-69
2023/07/24 06:51:09;;;;;;;9.38;3.72;;;;;;;18.61;100.00;100122.91;4995996;28;20033;-69
2023/07/24 06:53:34;;;;;;;7.65;3.55;;;;;;;18.56;100.00;100114.94;4984376;28;20069;-69
2023/07/24 06:56:00;;;;;;;9.20;3.40;;;;;;;18.53;100.00;100108.28;4984146;28;20444;-69
2023/07/24 06:58:25;;;;;;;6.20;3.38;;;;;;;18.51;100.00;100112.19;4999567;28;20022;-69
2023/07/24 07:00:51;;;;;;;8.27;3.45;;;;;;;18.58;100.00;100113.66;4984478;28;20116;-70
2023/07/24 07:03:16;;;;;;;6.57;3.58;;;;;;;18.52;100.00;100111.97;4987848;28;20440;-69
2023/07/24 07:05:42;;;;;;;5.57;3.50;;;;;;;18.54;100.00;100114.38;4987238;28;20039;-69
2023/07/24 07:08:07;;;;;;;6.07;4.07;;;;;;;18.46;100.00;100121.53;4987301;28;20038;-70
2023/07/24 07:10:33;;;;;;;6.93;3.90;;;;;;;18.42;100.00;100115.13;4985988;28;20034;-69
2023/07/24 07:12:58;;;;;;;7.88;3.50;;;;;;;18.51;100.00;100112.19;4991030;28;20520;-69
2023/07/24 07:15:24;;;;;;;7.15;3.72;;;;;;;18.46;100.00;100115.50;4986068;28;20035;-69
2023/07/24 07:17:49;;;;;;;9.18;3.47;;;;;;;18.51;100.00;100107.72;4984486;28;20050;-69
2023/07/24 07:20:15;;;;;;;5.22;3.33;;;;;;;18.72;100.00;100102.97;4988810;28;20038;-69
2023/07/24 07:22:40;;;;;;;8.48;4.25;;;;;;;18.55;100.00;100106.25;4985212;28;20435;-69
2023/07/24 07:25:06;;;;;;;12.00;3.45;;;;;;;18.47;100.00;100119.69;4983584;28;20040;-69
2023/07/24 07:27:31;;;;;;;5.97;3.25;;;;;;;18.41;100.00;100124.03;4984631;28;20066;-69
2023/07/24 07:29:57;;;;;;;5.68;3.05;;;;;;;18.36;100.00;100121.25;4985545;28;20038;-69
2023/07/24 07:32:22;;;;;;;9.18;4.05;;;;;;;18.29;100.00;100126.63;4985610;28;20185;-70
2023/07/24 07:34:48;;;;;;;7.20;3.78;;;;;;;18.25;100.00;100122.84;4985137;28;20037;-69
2023/07/24 07:37:13;;;;;;;6.50;3.40;;;;;;;18.22;100.00;100141.63;5001830;28;20054;-69
2023/07/24 07:39:39;;;;;;;8.48;4.82;;;;;;;18.19;100.00;100131.56;4969034;28;20042;-69
2023/07/24 07:42:04;;;;;;;8.25;3.90;;;;;;;18.14;100.00;100135.88;4981822;28;20078;-69
2023/07/24 07:44:30;;;;;;;6.05;3.25;;;;;;;18.13;100.00;100136.94;4986509;28;20041;-69
2023/07/24 07:46:56;;;;;;;9.75;3.55;;;;;;;18.16;100.00;100131.22;4982889;28;20460;-69
2023/07/24 07:49:21;;;;;;;5.50;3.40;;;;;;;18.22;100.00;100146.88;4997670;28;20046;-69
2023/07/24 07:51:47;;;;;;;7.03;3.60;;;;;;;18.32;100.00;100142.94;4999411;28;21978;-69
2023/07/24 07:54:13;;;;;;;9.45;3.58;;;;;;;18.33;100.00;100142.72;4986722;28;20034;-69
2023/07/24 07:56:38;;;;;;;5.63;3.65;;;;;;;18.35;100.00;100143.28;4982958;28;20042;-69
2023/07/24 07:59:04;;;;;;;6.72;3.75;;;;;;;18.42;100.00;100133.50;4988159;28;20034;-69
2023/07/24 08:01:30;;;;;;;5.85;3.22;;;;;;;18.51;100.00;100128.72;4983976;28;20555;-69
2023/07/24 08:03:55;;;;;;;4.60;3.35;;;;;;;18.56;100.00;100125.44;4982749;28;20100;-68
2023/07/24 08:06:21;;;;;;;7.05;3.78;;;;;;;18.73;100.00;100125.59;4985419;28;20038;-69
2023/07/24 08:08:47;;;;;;;5.45;3.13;;;;;;;19.26;100.00;100128.13;4999151;28;20037;-69
2023/07/24 08:11:12;;;;;;;4.78;2.97;;;;;;;19.42;100.00;100117.94;4981220;28;20108;-69
2023/07/24 08:13:38;;;;;;;7.30;3.35;;;;;;;19.52;100.00;100122.66;4984772;28;20053;-69
2023/07/24 08:16:03;;;;;;;5.88;3.45;;;;;;;19.50;100.00;100119.44;4984749;28;20049;-69
2023/07/24 08:18:30;;;;;;;7.13;3.30;;;;;;;19.35;100.00;100104.16;4985515;28;20050;-69
2023/07/24 08:20:55;;;;;;;4.65;2.80;;;;;;;19.43;100.00;100107.22;4980683;28;20054;-69
2023/07/24 08:23:21;;;;;;;6.40;2.80;;;;;;;19.67;100.00;100109.00;4979815;28;20038;-69
2023/07/24 08:25:54;;;;;;;5.07;2.83;;;;;;;19.65;100.00;100099.50;4982543;28;20056;-69
2023/07/24 08:28:20;;;;;;;4.25;2.75;;;;;;;19.53;100.00;100103.19;4995520;28;20421;-69
2023/07/24 08:30:47;;;;;;;4.43;2.60;;;;;;;19.52;100.00;100091.09;5001141;28;20589;-69
2023/07/24 08:33:13;;;;;;;7.40;3.00;;;;;;;19.50;100.00;100098.41;4988618;28;20113;-69
2023/07/24 08:35:38;;;;;;;5.43;2.33;;;;;;;19.57;100.00;100099.88;4987319;28;20557;-70
2023/07/24 08:38:03;;;;;;;3.83;2.00;;;;;;;19.41;100.00;100101.38;4985259;28;20030;-69
2023/07/24 08:40:29;;;;;;;3.38;2.05;;;;;;;19.24;100.00;100105.75;4985859;28;20038;-69
2023/07/24 08:42:55;;;;;;;5.32;2.13;;;;;;;19.17;100.00;100100.59;4978495;28;20547;-69
2023/07/24 08:45:22;;;;;;;4.97;1.90;;;;;;;19.15;100.00;100100.03;4981720;28;20128;-69
2023/07/24 08:47:48;;;;;;;4.63;2.42;;;;;;;19.13;100.00;100093.44;4996559;28;20037;-69
2023/07/24 08:50:15;;;;;;;3.53;1.73;;;;;;;19.21;100.00;100093.06;4981849;28;20030;-69
2023/07/24 08:52:42;;;;;;;3.80;2.13;;;;;;;19.32;100.00;100088.84;4982127;28;20109;-69
2023/07/24 08:55:08;;;;;;;7.75;2.47;;;;;;;19.40;100.00;100094.53;4996202;28;20058;-69
2023/07/24 08:57:35;;;;;;;3.83;2.70;;;;;;;19.42;100.00;100097.75;4983890;28;20042;-69
2023/07/24 09:00:04;;;;;;;4.63;2.28;;;;;;;19.39;100.00;100095.56;5000489;28;20253;-69
2023/07/24 09:02:34;;;;;;;3.22;1.92;;;;;;;19.38;100.00;100093.97;4970221;28;20042;-69
2023/07/24 09:05:00;;;;;;;6.10;2.10;;;;;;;19.30;100.00;100102.19;4996725;28;20041;-69
2023/07/24 09:07:25;;;;;;;4.22;2.58;;;;;;;19.41;100.00;100104.00;4980822;28;20473;-70
2023/07/24 09:09:51;;;;;;;3.55;2.20;;;;;;;19.40;100.00;100094.53;4989095;28;20092;-69
2023/07/24 09:12:16;;;;;;;5.22;2.50;;;;;;;19.54;100.00;100081.94;4975819;28;20044;-69
2023/07/24 09:14:42;;;;;;;4.15;2.70;;;;;;;19.55;100.00;100083.53;4983807;28;20034;-69
2023/07/24 09:17:09;;;;;;;5.63;2.38;;;;;;;19.59;100.00;100078.59;4975824;28;20509;-69
2023/07/24 09:19:36;;;;;;;5.45;2.33;;;;;;;19.64;100.00;100076.88;4985247;28;20515;-69
2023/07/24 09:22:08;;;;;;;5.97;2.75;;;;;;;19.64;100.00;100079.50;4966375;28;20086;-70
2023/07/24 09:24:34;;;;;;;8.20;2.70;;;;;;;19.64;100.00;100086.59;4997892;28;20046;-70
2023/07/24 09:26:59;;;;;;;3.47;2.30;;;;;;;19.64;100.00;100079.50;4982634;28;20528;-69
2023/07/24 09:29:32;;;;;;;4.35;2.78;;;;;;;19.74;100.00;100072.88;4983539;28;20105;-69
2023/07/24 09:31:58;;;;;;;;;;;;;;;19.97;100.00;100069.38;4983351;28;20092;-69
2023/07/24 09:34:25;;;;;;;3.47;2.78;;;;;;;20.11;100.00;100059.34;4980768;28;19921;-69
2023/07/24 09:36:51;;;;;;;6.85;2.95;;;;;;;20.26;100.00;100049.06;4981067;28;20291;-69
2023/07/24 09:39:23;;;;;;;5.80;2.85;;;;;;;20.77;100.00;100033.28;4985504;28;20030;-69
2023/07/24 09:41:49;;;;;;;6.27;2.80;;;;;;;21.34;100.00;100026.91;4984111;28;20034;-69
2023/07/24 09:44:15;;;;;;;5.65;2.90;;;;;;;21.81;96.79;100021.09;4983024;28;20498;-69
2023/07/24 09:46:43;;;;;;;5.18;2.92;;;;;;;22.08;94.96;100025.59;4980595;28;20505;-69
2023/07/24 09:49:09;;;;;;;11.10;3.53;;;;;;;21.95;93.26;100024.16;4984912;28;20050;-69
2023/07/24 09:51:35;;;;;;;5.85;3.17;;;;;;;21.65;90.68;100006.97;4978323;28;20688;-69
2023/07/24 09:54:20;;;;;;;6.68;3.28;;;;;;;21.42;92.08;100005.38;4981366;28;20046;-69
2023/07/24 09:56:47;;;;;;;8.10;2.85;;;;;;;21.32;92.29;100000.81;4979364;28;20121;-69
2023/07/24 09:59:13;;;;;;;4.93;2.70;;;;;;;20.99;93.67;99999.88;4997296;28;20577;-70
2023/07/24 10:01:39;;;;;;;9.23;3.53;;;;;;;20.82;93.80;100008.88;4984785;28;20044;-69
2023/07/24 10:04:05;;;;;;;7.45;2.72;;;;;;;20.65;96.98;100004.41;4981920;28;20031;-70
2023/07/24 10:06:31;;;;;;;8.73;3.03;;;;;;;20.55;98.76;99991.06;4997859;28;20065;-69
2023/07/24 10:08:57;;;;;;;5.03;3.17;;;;;;;20.44;100.00;99992.75;4981489;28;20153;-69
2023/07/24 10:11:24;;;;;;;4.68;3.03;;;;;;;20.22;100.00;100004.00;4980695;28;21443;-69
2023/07/24 10:13:50;;;;;;;6.00;2.22;;;;;;;20.18;100.00;100005.53;4981939;28;20045;-69
2023/07/24 10:16:16;;;;;;;4.95;2.35;;;;;;;19.89;100.00;99996.91;4983014;28;20031;-69
2023/07/24 10:18:46;;;;;;;5.32;1.85;;;;;;;19.86;100.00;100007.09;4982322;28;20080;-69
2023/07/24 10:21:12;;;;;;;5.65;2.42;;;;;;;19.65;100.00;100002.22;4984548;28;20404;-69
2023/07/24 10:23:43;;;;;;;5.28;2.55;;;;;;;19.63;100.00;100008.75;4983898;28;20022;-69
2023/07/24 10:26:08;;;;;;;5.15;2.08;;;;;;;19.63;100.00;100011.38;4981432;28;20031;-69
2023/07/24 10:28:39;;;;;;;6.45;2.50;;;;;;;19.57;100.00;100005.22;4982520;28;20042;-69
2023/07/24 10:31:08;;;;;;;6.03;2.10;;;;;;;19.62;100.00;100002.69;4983725;28;20215;-68
2023/07/24 10:33:44;;;;;;;3.58;2.35;;;;;;;19.65;100.00;100007.47;4989153;28;23089;-69
2023/07/24 10:36:10;;;;;;;3.47;2.05;;;;;;;19.72;100.00;100003.91;4985605;28;20041;-69
2023/07/24 10:38:38;;;;;;;3.70;2.35;;;;;;;19.81;100.00;99999.88;5002726;28;20046;-70
2023/07/24 10:41:05;;;;;;;6.72;2.88;;;;;;;19.86;100.00;99997.34;4986692;28;20046;-69
2023/07/24 10:43:44;;;;;;;6.07;2.63;;;;;;;19.86;100.00;100000.00;4984321;28;20053;-69
2023/07/24 10:46:10;;;;;;;2.58;2.00;;;;;;;19.95;100.00;100001.19;4968823;28;20118;-70
2023/07/24 10:48:36;;;;;;;3.70;2.33;;;;;;;20.13;100.00;100005.44;4977935;28;20033;-69
2023/07/24 10:51:09;;;;;;;3.67;2.13;;;;;;;20.16;100.00;100007.59;4984203;28;20168;-69
2023/07/24 10:53:37;;;;;;;4.00;2.28;;;;;;;20.08;100.00;99997.47;4988395;28;20244;-69
2023/07/24 10:56:04;;;;;;;3.17;2.10;;;;;;;19.99;100.00;99993.63;4985998;28;20061;-69
2023/07/24 10:58:29;;;;;;;4.47;2.15;;;;;;;19.80;100.00;99995.69;4985050;28;20022;-69
2023/07/24 11:00:56;;;;;;;4.90;2.55;;;;;;;19.56;100.00;99997.56;4999597;28;20170;-70
2023/07/24 11:03:21;;;;;;;5.40;2.70;;;;;;;19.40;100.00;100001.72;4986072;28;20030;-70
2023/07/24 11:05:47;;;;;;;6.65;2.35;;;;;;;19.13;100.00;99986.50;4988712;28;20555;-70
2023/07/24 11:08:15;;;;;;;4.82;2.42;;;;;;;19.03;100.00;100004.69;4984946;28;20455;-70
2023/07/24 11:10:47;;;;;;;4.03;2.10;;;;;;;18.92;100.00;100039.66;4988708;28;20049;-71
2023/07/24 11:13:13;;;;;;;6.53;2.37;;;;;;;18.88;100.00;100049.81;4986279;28;20053;-70